M/V C0sta Favolosa — ICPK — position and weather

sailwx.info

Track history (hours):
 
Tides and Currents Weather Stations Pressure Air Temp Water Temp Dewpoint Dewpoint Depression Visibility Wind Speed Wind Dir Waves Ship Positions

M/V C0sta Favolosa

Last reported at 2017-Aug-23 13:30 UTC. Time now 2017-Aug-23 13:36 UTC.
Position N 58°08' E 007°60'.

Length 289 m; draft 8.4 m.

Type: Ship. MMSI: 247311100.

Date/timePositionNaut miles runAvg speedWind from/ knotsBaromVisibWave heightAir tempDewpointWater temp
2017-Aug-23 13:30N 58°08' E 007°60'0 0.0
2017-Aug-23 13:00N 58°08' E 007°60'0 0.0
2017-Aug-23 12:30N 58°08' E 007°60'0 0.0
2017-Aug-23 12:00N 58°08' E 007°60'0 0.0
2017-Aug-23 11:30N 58°08' E 007°60'0 0.0
2017-Aug-23 11:01N 58°08' E 007°60'0 0.3
2017-Aug-23 10:30N 58°08' E 007°59'3 6.0
2017-Aug-23 10:00N 58°06' E 008°03'510.6
2017-Aug-23 09:30N 58°01' E 008°08'816.0
2017-Aug-23 09:00N 57°53' E 008°10'917.8
2017-Aug-23 08:30N 57°45' E 008°04'1017.3
2017-Aug-23 07:56N 57°42' E 007°46'818.7
2017-Aug-23 07:30N 57°42' E 007°31'918.6
2017-Aug-23 07:00N 57°42' E 007°13'918.4
2017-Aug-23 06:30N 57°43' E 006°56'918.7
2017-Aug-23 06:00N 57°43' E 006°39'918.6
2017-Aug-23 05:30N 57°48' E 006°24'1018.9
2017-Aug-23 05:00N 57°54' E 006°10'918.8
2017-Aug-23 04:30N 57°60' E 005°57'1018.9
2017-Aug-23 03:58N 58°06' E 005°42'919.1
2017-Aug-23 03:30N 58°12' E 005°30'1019.5
2017-Aug-23 03:00N 58°19' E 005°15'919.0
2017-Aug-23 02:30N 58°27' E 005°07'918.8
2017-Aug-23 02:00N 58°36' E 004°59'918.9
2017-Aug-23 01:31N 58°44' E 004°52'1019.5
2017-Aug-23 01:00N 58°53' E 004°44'1019.9
2017-Aug-23 00:30N 59°02' E 004°36'1119.4
2017-Aug-22 23:58N 59°12' E 004°27'5618.4
2017-Aug-22 20:53N 60°08' E 004°30'717.7
2017-Aug-22 20:30N 60°15' E 004°31'917.5
2017-Aug-22 20:00N 60°24' E 004°32'817.4
2017-Aug-22 19:30N 60°32' E 004°33'917.4
2017-Aug-22 18:59N 60°41' E 004°33'713.9
2017-Aug-22 18:30N 60°43' E 004°46'714.4
2017-Aug-22 18:00N 60°37' E 004°53'918.5
2017-Aug-22 17:30N 60°28' E 005°00'714.1
2017-Aug-22 17:00N 60°23' E 005°10'5 9.0
2017-Aug-22 16:30N 60°24' E 005°19'0 0.4
2017-Aug-22 16:00N 60°24' E 005°19'0 0.0
2017-Aug-22 15:30N 60°24' E 005°19'0 0.0
2017-Aug-22 14:54N 60°24' E 005°19'0 0.0
2017-Aug-22 14:30N 60°24' E 005°19'0 0.0
2017-Aug-22 14:00N 60°24' E 005°19'0 0.0
2017-Aug-22 13:30N 60°24' E 005°19'0 0.0
2017-Aug-22 12:59N 60°24' E 005°19'0 0.0
2017-Aug-22 12:29N 60°24' E 005°19'0 0.0
2017-Aug-22 12:00N 60°24' E 005°19'0 0.0
2017-Aug-22 11:30N 60°24' E 005°19'0 0.0
2017-Aug-22 11:00N 60°24' E 005°19'0 0.0
2017-Aug-22 10:30N 60°24' E 005°19'0 0.0
2017-Aug-22 10:00N 60°24' E 005°19'0 0.0
2017-Aug-22 09:30N 60°24' E 005°19'0 0.0
2017-Aug-22 08:59N 60°24' E 005°19'0 0.0
2017-Aug-22 08:30N 60°24' E 005°19'0 0.0
2017-Aug-22 08:00N 60°24' E 005°19'0 0.0
2017-Aug-22 07:30N 60°24' E 005°19'0 0.0
2017-Aug-22 07:00N 60°24' E 005°19'0 0.0
2017-Aug-22 06:30N 60°24' E 005°19'0 0.0
2017-Aug-22 05:59N 60°24' E 005°19'0 0.1
2017-Aug-22 05:30N 60°24' E 005°19'3 5.9
2017-Aug-22 05:00N 60°24' E 005°13'5 9.2
2017-Aug-22 04:30N 60°25' E 005°04'815.9
2017-Aug-22 04:00N 60°32' E 004°56'918.6
2017-Aug-22 03:30N 60°41' E 004°50'612.0
2017-Aug-22 03:00N 60°45' E 004°40'612.8
2017-Aug-22 02:30N 60°47' E 004°28'918.2
2017-Aug-22 02:00N 60°56' E 004°22'917.7
2017-Aug-22 01:30N 61°04' E 004°15'3819.7
2017-Aug-21 23:35N 61°42' E 004°22'220.7
2017-Aug-21 23:30N 61°44' E 004°24'1020.7
2017-Aug-21 23:00N 61°53' E 004°33'1020.3
2017-Aug-21 22:30N 62°02' E 004°42'1020.5
2017-Aug-21 22:00N 62°11' E 004°52'1020.2
2017-Aug-21 21:30N 62°19' E 005°05'1020.1
2017-Aug-21 21:00N 62°26' E 005°22'1020.5
2017-Aug-21 20:30N 62°30' E 005°42'919.4
2017-Aug-21 20:00N 62°26' E 006°00'713.4
2017-Aug-21 19:30N 62°23' E 006°14'1019.1
2017-Aug-21 19:00N 62°26' E 006°33'917.7
2017-Aug-21 18:29N 62°26' E 006°53'817.0
2017-Aug-21 18:00N 62°19' E 006°59'816.1
2017-Aug-21 17:30N 62°11' E 007°01'510.4
2017-Aug-21 17:00N 62°05' E 007°03'4 8.0
2017-Aug-21 16:30N 62°06' E 007°12'0 0.0
2017-Aug-21 15:58N 62°06' E 007°12'0 0.0
2017-Aug-21 15:30N 62°06' E 007°12'0 0.0
2017-Aug-21 15:00N 62°06' E 007°12'0 0.0
2017-Aug-21 14:30N 62°06' E 007°12'0 0.0
2017-Aug-21 13:59N 62°06' E 007°12'0 0.0
2017-Aug-21 13:28N 62°06' E 007°12'0 0.0
2017-Aug-21 13:00N 62°06' E 007°12'0 0.0
2017-Aug-21 12:28N 62°06' E 007°12'0 0.0
2017-Aug-21 12:00N 62°06' E 007°12'0 0.0
2017-Aug-21 11:30N 62°06' E 007°12'0 0.0
2017-Aug-21 11:00N 62°06' E 007°12'0 0.0
2017-Aug-21 10:29N 62°06' E 007°12'0 0.0
2017-Aug-21 09:59N 62°06' E 007°12'0 0.0
2017-Aug-21 09:30N 62°06' E 007°12'0 0.0
2017-Aug-21 09:00N 62°06' E 007°12'0 0.0
2017-Aug-21 08:30N 62°06' E 007°12'1 2.0
2017-Aug-21 08:00N 62°07' E 007°10'510.7
2017-Aug-21 07:30N 62°06' E 006°59'3 1.7
2017-Aug-21 05:36N 62°05' E 006°53'1 2.3
2017-Aug-21 05:12N 62°06' E 006°54'2 8.9
2017-Aug-21 05:00N 62°07' E 006°56'713.8
2017-Aug-21 04:30N 62°14' E 007°01'714.7
2017-Aug-21 04:00N 62°21' E 006°56'713.8
2017-Aug-21 03:30N 62°27' E 006°50'815.9
2017-Aug-21 02:59N 62°26' E 006°32'817.1
2017-Aug-21 02:30N 62°23' E 006°15'815.1
2017-Aug-21 02:00N 62°26' E 006°00'510.9
2017-Aug-21 01:30N 62°28' E 005°49'816.2
2017-Aug-21 01:00N 62°29' E 005°32'917.9
2017-Aug-21 00:30N 62°24' E 005°15'918.3
2017-Aug-21 00:00N 62°18' E 005°00'918.3
2017-Aug-20 23:30N 62°12' E 004°45'918.2
2017-Aug-20 23:00N 62°07' E 004°30'19617.8
2017-Aug-20 11:59N 58°50' E 004°32'1019.2
2017-Aug-20 11:28N 58°43' E 004°45'1019.1
2017-Aug-20 10:58N 58°37' E 004°58'919.6
2017-Aug-20 10:30N 58°30' E 005°10'1019.9
2017-Aug-20 10:00N 58°22' E 005°23'1019.8
2017-Aug-20 09:30N 58°15' E 005°36'1020.1
2017-Aug-20 09:00N 58°09' E 005°50'1020.3
2017-Aug-20 08:30N 58°02' E 006°05'1020.5
2017-Aug-20 08:00N 57°56' E 006°19'1120.7
2017-Aug-20 07:30N 57°49' E 006°34'1021.2
2017-Aug-20 07:00N 57°47' E 006°54'1020.5
2017-Aug-20 06:30N 57°46' E 007°13'1121.2
2017-Aug-20 06:00N 57°46' E 007°33'1020.9
2017-Aug-20 05:30N 57°45' E 007°53'5719.2
2017-Aug-20 02:31N 57°50' E 009°39'219.3
2017-Aug-20 02:25N 57°49' E 009°43'819.4
2017-Aug-20 02:00N 57°49' E 009°58'1019.5
2017-Aug-20 01:30N 57°51' E 010°16'1019.7
2017-Aug-20 01:00N 57°51' E 010°35'918.4
2017-Aug-20 00:30N 57°47' E 010°51'1020.1
2017-Aug-20 00:00N 57°40' E 011°04'1020.0
2017-Aug-19 23:30N 57°33' E 011°17'1020.6
2017-Aug-19 23:00N 57°25' E 011°30'1020.5
2017-Aug-19 22:30N 57°16' E 011°36'1120.8
2017-Aug-19 21:59N 57°05' E 011°41'1220.3
2017-Aug-19 21:23N 56°54' E 011°49'3919.9
2017-Aug-19 19:27N 56°17' E 012°10'920.5
2017-Aug-19 19:00N 56°11' E 012°23'918.9
2017-Aug-19 18:30N 56°05' E 012°36'815.6
2017-Aug-19 18:00N 55°58' E 012°42'815.8
2017-Aug-19 17:31N 55°51' E 012°45'611.9
2017-Aug-19 17:00N 55°45' E 012°41'3 5.7
2017-Aug-19 16:29N 55°43' E 012°38'0 0.0
2017-Aug-19 15:59N 55°43' E 012°38'0 0.0
2017-Aug-19 15:29N 55°43' E 012°38'0 0.0
2017-Aug-19 14:59N 55°43' E 012°38'0 0.0
2017-Aug-19 14:00N 55°43' E 012°38'0 0.0
2017-Aug-19 13:30N 55°43' E 012°38'0 0.0
2017-Aug-19 13:00N 55°43' E 012°38'0 0.0
2017-Aug-19 12:30N 55°43' E 012°38'0 0.0
2017-Aug-19 12:00N 55°43' E 012°38'0 0.0
2017-Aug-19 11:30N 55°43' E 012°38'0 0.0
2017-Aug-19 10:59N 55°43' E 012°38'0 0.0
2017-Aug-19 10:29N 55°43' E 012°38'0 0.0
2017-Aug-19 09:59N 55°43' E 012°38'0 0.0
2017-Aug-19 09:28N 55°43' E 012°38'0 0.0
2017-Aug-19 09:00N 55°43' E 012°38'0 0.0
2017-Aug-19 08:30N 55°43' E 012°38'0 0.0
2017-Aug-19 08:00N 55°43' E 012°38'0 0.0
2017-Aug-19 07:29N 55°43' E 012°38'0 0.0
2017-Aug-19 06:59N 55°43' E 012°38'0 0.0
2017-Aug-19 06:28N 55°43' E 012°38'0 0.0
2017-Aug-19 06:00N 55°43' E 012°38'1 1.5
2017-Aug-19 05:30N 55°43' E 012°39'511.0
2017-Aug-19 05:00N 55°48' E 012°42'816.9
2017-Aug-19 04:30N 55°57' E 012°39'815.1
2017-Aug-19 04:00N 56°04' E 012°37'918.2
2017-Aug-19 03:30N 56°10' E 012°24'917.9
2017-Aug-19 03:00N 56°12' E 012°08'1718.4
2017-Aug-19 02:05N 56°08' E 011°39'818.6
2017-Aug-19 01:39N 56°08' E 011°24'317.9
2017-Aug-19 01:29N 56°08' E 011°19'816.6
2017-Aug-19 00:59N 56°03' E 011°07'1018.8
2017-Aug-19 00:29N 55°55' E 010°57'919.1
2017-Aug-19 00:00N 55°47' E 010°49'1019.6
2017-Aug-18 23:30N 55°38' E 010°48'1019.6
2017-Aug-18 23:00N 55°29' E 010°55'918.3
2017-Aug-18 22:29N 55°20' E 011°02'817.0
2017-Aug-18 22:00N 55°12' E 011°06'817.0
2017-Aug-18 21:30N 55°04' E 011°02'917.2
2017-Aug-18 21:00N 54°56' E 010°56'917.9
2017-Aug-18 20:30N 54°47' E 010°52'816.7
2017-Aug-18 20:00N 54°40' E 010°59'1019.4
2017-Aug-18 19:30N 54°35' E 011°13'1019.3
2017-Aug-18 19:00N 54°31' E 011°28'918.7
2017-Aug-18 18:30N 54°27' E 011°43'917.9
2017-Aug-18 18:00N 54°22' E 011°55'916.8
2017-Aug-18 17:29N 54°15' E 012°04'4 8.8
2017-Aug-18 17:00N 54°11' E 012°06'0 0.0
2017-Aug-18 16:21N 54°11' E 012°06'0 0.0
2017-Aug-18 15:36N 54°11' E 012°06'0 0.0
2017-Aug-18 15:30N 54°11' E 012°06'0 0.0
2017-Aug-18 09:15N 54°11' E 012°06'0 0.0
2017-Aug-18 07:36N 54°11' E 012°06'0 0.2
2017-Aug-18 05:12N 54°10' E 012°06'1 3.4
2017-Aug-18 05:00N 54°10' E 012°06'6 6.5
2017-Aug-18 04:04N 54°15' E 012°02'1 7.7
2017-Aug-18 04:00N 54°15' E 012°01'714.1
2017-Aug-18 03:30N 54°19' E 011°51'918.0
2017-Aug-18 03:00N 54°25' E 011°39'918.3
2017-Aug-18 02:30N 54°29' E 011°26'918.1
2017-Aug-18 02:00N 54°34' E 011°12'917.7
2017-Aug-18 01:30N 54°39' E 010°59'815.6
2017-Aug-18 01:00N 54°45' E 010°52'815.9
2017-Aug-18 00:30N 54°53' E 010°52'816.2
2017-Aug-18 00:00N 54°59' E 011°01'816.6
2017-Aug-17 23:30N 55°08' E 011°02'714.5
2017-Aug-17 23:00N 55°15' E 011°05'612.0
2017-Aug-17 22:30N 55°20' E 011°02'611.5
2017-Aug-17 21:59N 55°26' E 010°58'612.7
2017-Aug-17 21:29N 55°31' E 010°51'611.8
2017-Aug-17 21:00N 55°36' E 010°48'611.4
2017-Aug-17 20:30N 55°42' E 010°47'611.3
2017-Aug-17 19:59N 55°48' E 010°48'611.2
2017-Aug-17 19:29N 55°53' E 010°53'511.6
2017-Aug-17 19:00N 55°57' E 010°60'510.4
2017-Aug-17 18:30N 56°02' E 010°59'713.6
2017-Aug-17 17:59N 56°03' E 010°47'813.3
2017-Aug-17 17:23N 56°05' E 010°33'1012.2
2017-Aug-17 16:35N 56°09' E 010°17'1 8.3
2017-Aug-17 16:29N 56°09' E 010°16'2 2.7
2017-Aug-17 15:56N 56°09' E 010°13'0 0.0
2017-Aug-17 13:23N 56°09' E 010°13'0 0.0
2017-Aug-17 12:59N 56°09' E 010°13'0 0.0
2017-Aug-17 12:29N 56°09' E 010°13'0 0.0
2017-Aug-17 11:59N 56°09' E 010°13'0 0.0
2017-Aug-17 11:23N 56°09' E 010°13'0 0.0
2017-Aug-17 10:56N 56°09' E 010°13'0 0.0
2017-Aug-17 10:26N 56°09' E 010°13'0 0.0
2017-Aug-17 09:56N 56°09' E 010°13'0 0.0
2017-Aug-17 06:47N 56°09' E 010°13'0 0.0
2017-Aug-17 06:27N 56°09' E 010°13'1 1.1
2017-Aug-17 05:50N 56°10' E 010°14'1 4.6
2017-Aug-17 05:30N 56°09' E 010°17'612.1
2017-Aug-17 05:00N 56°07' E 010°26'917.5
2017-Aug-17 04:30N 56°03' E 010°41'918.0
2017-Aug-17 04:00N 56°05' E 010°57'918.3
2017-Aug-17 03:30N 56°13' E 010°60'1018.4
2017-Aug-17 02:59N 56°23' E 011°05'917.5
2017-Aug-17 02:29N 56°29' E 011°15'918.9
2017-Aug-17 01:59N 56°35' E 011°29'1020.4
2017-Aug-17 01:30N 56°41' E 011°43'1018.7
2017-Aug-17 01:00N 56°49' E 011°51'1021.2
2017-Aug-17 00:31N 56°59' E 011°44'1020.8
2017-Aug-17 00:00N 57°09' E 011°36'1020.7
2017-Aug-16 23:31N 57°18' E 011°29'1020.4
2017-Aug-16 23:00N 57°28' E 011°22'1120.9
2017-Aug-16 22:30N 57°34' E 011°07'1021.0
2017-Aug-16 22:01N 57°42' E 010°55'1120.8
2017-Aug-16 21:30N 57°48' E 010°38'1121.5
2017-Aug-16 21:00N 57°49' E 010°19'1121.4
2017-Aug-16 20:30N 57°49' E 009°59'1121.7
2017-Aug-16 19:59N 57°51' E 009°37'1122.1
2017-Aug-16 19:29N 57°52' E 009°16'1122.1
2017-Aug-16 18:59N 57°53' E 008°56'1321.2
2017-Aug-16 18:20N 57°57' E 008°31'720.8
2017-Aug-16 18:00N 57°60' E 008°20'917.7
2017-Aug-16 17:30N 58°04' E 008°05'5 9.7
2017-Aug-16 17:00N 58°08' E 007°59'0 0.3
2017-Aug-16 16:30N 58°08' E 007°60'0 0.0
2017-Aug-16 16:00N 58°08' E 007°60'0 0.0
2017-Aug-16 15:30N 58°08' E 007°60'0 0.0
2017-Aug-16 15:00N 58°08' E 007°60'0 0.0
2017-Aug-16 14:30N 58°08' E 007°60'0 0.0
2017-Aug-16 14:00N 58°08' E 007°60'0 0.0
2017-Aug-16 13:30N 58°08' E 007°60'0 0.0
2017-Aug-16 13:00N 58°08' E 007°60'0 0.0
2017-Aug-16 12:30N 58°08' E 007°60'0 0.0
2017-Aug-16 11:59N 58°08' E 007°60'0 0.0
2017-Aug-16 11:29N 58°08' E 007°60'0 0.0
2017-Aug-16 10:59N 58°08' E 007°60'0 0.2
2017-Aug-16 10:29N 58°08' E 007°59'3 5.4
2017-Aug-16 10:00N 58°06' E 008°03'611.4
2017-Aug-16 09:30N 58°01' E 008°08'815.5
2017-Aug-16 09:00N 57°54' E 008°12'2213.8
2017-Aug-16 07:23N 57°42' E 007°37'717.7
2017-Aug-16 07:00N 57°42' E 007°24'918.1
2017-Aug-16 06:30N 57°42' E 007°07'917.9
2017-Aug-16 06:00N 57°43' E 006°51'918.0
2017-Aug-16 05:30N 57°44' E 006°34'918.7
2017-Aug-16 05:00N 57°49' E 006°20'1118.7
2017-Aug-16 04:26N 57°55' E 006°03'818.9
2017-Aug-16 04:00N 58°00' E 005°51'1319.3
2017-Aug-16 03:20N 58°09' E 005°34'819.1
2017-Aug-16 02:55N 58°14' E 005°22'818.3
2017-Aug-16 02:29N 58°20' E 005°13'918.4
2017-Aug-16 02:00N 58°28' E 005°06'918.0
2017-Aug-16 01:30N 58°36' E 004°58'918.3
2017-Aug-16 01:00N 58°45' E 004°51'918.5
2017-Aug-16 00:30N 58°53' E 004°44'918.3
2017-Aug-16 00:00N 59°02' E 004°36'917.9
2017-Aug-15 23:29N 59°10' E 004°29'5818.3
2017-Aug-15 20:19N 60°08' E 004°30'618.4
2017-Aug-15 20:00N 60°14' E 004°31'917.9
2017-Aug-15 19:30N 60°23' E 004°32'917.8
2017-Aug-15 19:00N 60°32' E 004°33'917.4
2017-Aug-15 18:30N 60°40' E 004°32'713.8
2017-Aug-15 18:00N 60°44' E 004°45'714.8
2017-Aug-15 17:30N 60°38' E 004°53'1019.4
2017-Aug-15 17:00N 60°28' E 005°00'714.5
2017-Aug-15 16:30N 60°23' E 005°10'5 9.1
2017-Aug-15 16:00N 60°24' E 005°19'0 0.1
2017-Aug-15 15:28N 60°24' E 005°19'0 0.0
2017-Aug-15 14:58N 60°24' E 005°19'0 0.0
2017-Aug-15 14:22N 60°24' E 005°19'0 0.0
2017-Aug-15 13:58N 60°24' E 005°19'0 0.0
2017-Aug-15 13:28N 60°24' E 005°19'0 0.0
2017-Aug-15 12:58N 60°24' E 005°19'0 0.0
2017-Aug-15 12:28N 60°24' E 005°19'0 0.0
2017-Aug-15 11:58N 60°24' E 005°19'0 0.0
2017-Aug-15 11:28N 60°24' E 005°19'0 0.0
2017-Aug-15 10:58N 60°24' E 005°19'0 0.0
2017-Aug-15 10:28N 60°24' E 005°19'0 0.0
2017-Aug-15 09:58N 60°24' E 005°19'0 0.0
2017-Aug-15 09:28N 60°24' E 005°19'0 0.0
2017-Aug-15 08:58N 60°24' E 005°19'0 0.0
2017-Aug-15 08:28N 60°24' E 005°19'0 0.0
2017-Aug-15 07:58N 60°24' E 005°19'0 0.0
2017-Aug-15 07:22N 60°24' E 005°19'0 0.0
2017-Aug-15 06:58N 60°24' E 005°19'0 0.0
2017-Aug-15 06:28N 60°24' E 005°19'0 0.0
2017-Aug-15 05:58N 60°24' E 005°19'0 0.2
2017-Aug-15 05:30N 60°24' E 005°19'3 6.6
2017-Aug-15 05:00N 60°24' E 005°12'611.1
2017-Aug-15 04:30N 60°26' E 005°02'916.9
2017-Aug-15 04:00N 60°34' E 004°55'816.8
2017-Aug-15 03:30N 60°41' E 004°48'816.7
2017-Aug-15 03:00N 60°46' E 004°34'918.1
2017-Aug-15 02:30N 60°53' E 004°24'918.0
2017-Aug-15 02:00N 61°02' E 004°17'4118.9
2017-Aug-14 23:49N 61°43' E 004°23'619.3
2017-Aug-14 23:30N 61°48' E 004°28'918.4
2017-Aug-14 22:59N 61°57' E 004°37'1019.4
2017-Aug-14 22:30N 62°05' E 004°46'1019.5
2017-Aug-14 22:00N 62°14' E 004°55'918.1
2017-Aug-14 21:29N 62°21' E 005°09'1019.6
2017-Aug-14 21:00N 62°27' E 005°25'918.1
2017-Aug-14 20:30N 62°30' E 005°43'918.5
2017-Aug-14 20:00N 62°26' E 006°01'713.7
2017-Aug-14 19:30N 62°23' E 006°14'1019.4
2017-Aug-14 19:00N 62°26' E 006°34'918.0
2017-Aug-14 18:30N 62°26' E 006°54'917.4
2017-Aug-14 18:00N 62°18' E 007°01'917.0
2017-Aug-14 17:30N 62°09' E 006°59'4 8.7
2017-Aug-14 17:00N 62°06' E 007°05'3 6.5
2017-Aug-14 16:30N 62°06' E 007°12'0 0.0
2017-Aug-14 16:00N 62°06' E 007°12'0 0.0
2017-Aug-14 15:30N 62°06' E 007°12'0 0.0
2017-Aug-14 13:07N 62°06' E 007°12'0 0.0
2017-Aug-14 13:00N 62°06' E 007°12'0 0.0
2017-Aug-14 12:30N 62°06' E 007°12'0 0.0
2017-Aug-14 12:00N 62°06' E 007°12'0 0.0
2017-Aug-14 11:28N 62°06' E 007°12'0 0.0
2017-Aug-14 10:58N 62°06' E 007°12'0 0.0
2017-Aug-14 10:30N 62°06' E 007°12'0 0.0
2017-Aug-14 09:58N 62°06' E 007°12'0 0.0
2017-Aug-14 09:28N 62°06' E 007°12'0 0.0
2017-Aug-14 08:58N 62°06' E 007°12'0 0.1
2017-Aug-14 08:30N 62°06' E 007°12'2 3.0
2017-Aug-14 08:00N 62°07' E 007°09'611.0
2017-Aug-14 07:30N 62°06' E 006°58'3 1.5
2017-Aug-14 05:41N 62°05' E 006°53'1 1.5
2017-Aug-14 05:18N 62°06' E 006°53'2 7.4
2017-Aug-14 05:00N 62°07' E 006°57'713.2
2017-Aug-14 04:30N 62°13' E 007°01'612.4
2017-Aug-14 04:00N 62°19' E 006°57'713.2
2017-Aug-14 03:30N 62°26' E 006°54'713.2
2017-Aug-14 03:00N 62°27' E 006°40'713.5
2017-Aug-14 02:30N 62°25' E 006°27'713.9
2017-Aug-14 02:00N 62°23' E 006°13'713.3
2017-Aug-14 01:30N 62°26' E 005°60'612.7
2017-Aug-14 00:59N 62°29' E 005°47'816.1
2017-Aug-14 00:30N 62°29' E 005°30'918.5
2017-Aug-14 00:00N 62°23' E 005°15'918.5
2017-Aug-13 23:30N 62°17' E 004°59'918.4
2017-Aug-13 23:00N 62°11' E 004°43'  
Track history (hours):
 
Tides and Currents Weather Stations Pressure Air Temp Water Temp Dewpoint Dewpoint Depression Visibility Wind Speed Wind Dir Waves Ship Positions

M/V C0sta Favolosa

Last reported at 2017-Aug-23 13:30 UTC. Time now 2017-Aug-23 13:36 UTC.
Position N 58°08' E 007°60'.

Length 289 m; draft 8.4 m.

Type: Ship. MMSI: 247311100.

Date/timePositionNaut miles runAvg speedWind from/ knotsBaromVisibWave heightAir tempDewpointWater temp
2017-Aug-23 13:30N 58°08' E 007°60'0 0.0
2017-Aug-23 13:00N 58°08' E 007°60'0 0.0
2017-Aug-23 12:30N 58°08' E 007°60'0 0.0
2017-Aug-23 12:00N 58°08' E 007°60'0 0.0
2017-Aug-23 11:30N 58°08' E 007°60'0 0.0
2017-Aug-23 11:01N 58°08' E 007°60'0 0.3
2017-Aug-23 10:30N 58°08' E 007°59'3 6.0
2017-Aug-23 10:00N 58°06' E 008°03'510.6
2017-Aug-23 09:30N 58°01' E 008°08'816.0
2017-Aug-23 09:00N 57°53' E 008°10'917.8
2017-Aug-23 08:30N 57°45' E 008°04'1017.3
2017-Aug-23 07:56N 57°42' E 007°46'818.7
2017-Aug-23 07:30N 57°42' E 007°31'918.6
2017-Aug-23 07:00N 57°42' E 007°13'918.4
2017-Aug-23 06:30N 57°43' E 006°56'918.7
2017-Aug-23 06:00N 57°43' E 006°39'918.6
2017-Aug-23 05:30N 57°48' E 006°24'1018.9
2017-Aug-23 05:00N 57°54' E 006°10'918.8
2017-Aug-23 04:30N 57°60' E 005°57'1018.9
2017-Aug-23 03:58N 58°06' E 005°42'919.1
2017-Aug-23 03:30N 58°12' E 005°30'1019.5
2017-Aug-23 03:00N 58°19' E 005°15'919.0
2017-Aug-23 02:30N 58°27' E 005°07'918.8
2017-Aug-23 02:00N 58°36' E 004°59'918.9
2017-Aug-23 01:31N 58°44' E 004°52'1019.5
2017-Aug-23 01:00N 58°53' E 004°44'1019.9
2017-Aug-23 00:30N 59°02' E 004°36'1119.4
2017-Aug-22 23:58N 59°12' E 004°27'5618.4
2017-Aug-22 20:53N 60°08' E 004°30'717.7
2017-Aug-22 20:30N 60°15' E 004°31'917.5
2017-Aug-22 20:00N 60°24' E 004°32'817.4
2017-Aug-22 19:30N 60°32' E 004°33'917.4
2017-Aug-22 18:59N 60°41' E 004°33'713.9
2017-Aug-22 18:30N 60°43' E 004°46'714.4
2017-Aug-22 18:00N 60°37' E 004°53'918.5
2017-Aug-22 17:30N 60°28' E 005°00'714.1
2017-Aug-22 17:00N 60°23' E 005°10'5 9.0
2017-Aug-22 16:30N 60°24' E 005°19'0 0.4
2017-Aug-22 16:00N 60°24' E 005°19'0 0.0
2017-Aug-22 15:30N 60°24' E 005°19'0 0.0
2017-Aug-22 14:54N 60°24' E 005°19'0 0.0
2017-Aug-22 14:30N 60°24' E 005°19'0 0.0
2017-Aug-22 14:00N 60°24' E 005°19'0 0.0
2017-Aug-22 13:30N 60°24' E 005°19'0 0.0
2017-Aug-22 12:59N 60°24' E 005°19'0 0.0
2017-Aug-22 12:29N 60°24' E 005°19'0 0.0
2017-Aug-22 12:00N 60°24' E 005°19'0 0.0
2017-Aug-22 11:30N 60°24' E 005°19'0 0.0
2017-Aug-22 11:00N 60°24' E 005°19'0 0.0
2017-Aug-22 10:30N 60°24' E 005°19'0 0.0
2017-Aug-22 10:00N 60°24' E 005°19'0 0.0
2017-Aug-22 09:30N 60°24' E 005°19'0 0.0
2017-Aug-22 08:59N 60°24' E 005°19'0 0.0
2017-Aug-22 08:30N 60°24' E 005°19'0 0.0
2017-Aug-22 08:00N 60°24' E 005°19'0 0.0
2017-Aug-22 07:30N 60°24' E 005°19'0 0.0
2017-Aug-22 07:00N 60°24' E 005°19'0 0.0
2017-Aug-22 06:30N 60°24' E 005°19'0 0.0
2017-Aug-22 05:59N 60°24' E 005°19'0 0.1
2017-Aug-22 05:30N 60°24' E 005°19'3 5.9
2017-Aug-22 05:00N 60°24' E 005°13'5 9.2
2017-Aug-22 04:30N 60°25' E 005°04'815.9
2017-Aug-22 04:00N 60°32' E 004°56'918.6
2017-Aug-22 03:30N 60°41' E 004°50'612.0
2017-Aug-22 03:00N 60°45' E 004°40'612.8
2017-Aug-22 02:30N 60°47' E 004°28'918.2
2017-Aug-22 02:00N 60°56' E 004°22'917.7
2017-Aug-22 01:30N 61°04' E 004°15'3819.7
2017-Aug-21 23:35N 61°42' E 004°22'220.7
2017-Aug-21 23:30N 61°44' E 004°24'1020.7
2017-Aug-21 23:00N 61°53' E 004°33'1020.3
2017-Aug-21 22:30N 62°02' E 004°42'1020.5
2017-Aug-21 22:00N 62°11' E 004°52'1020.2
2017-Aug-21 21:30N 62°19' E 005°05'1020.1
2017-Aug-21 21:00N 62°26' E 005°22'1020.5
2017-Aug-21 20:30N 62°30' E 005°42'919.4
2017-Aug-21 20:00N 62°26' E 006°00'713.4
2017-Aug-21 19:30N 62°23' E 006°14'1019.1
2017-Aug-21 19:00N 62°26' E 006°33'917.7
2017-Aug-21 18:29N 62°26' E 006°53'817.0
2017-Aug-21 18:00N 62°19' E 006°59'816.1
2017-Aug-21 17:30N 62°11' E 007°01'510.4
2017-Aug-21 17:00N 62°05' E 007°03'4 8.0
2017-Aug-21 16:30N 62°06' E 007°12'0 0.0
2017-Aug-21 15:58N 62°06' E 007°12'0 0.0
2017-Aug-21 15:30N 62°06' E 007°12'0 0.0
2017-Aug-21 15:00N 62°06' E 007°12'0 0.0
2017-Aug-21 14:30N 62°06' E 007°12'0 0.0
2017-Aug-21 13:59N 62°06' E 007°12'0 0.0
2017-Aug-21 13:28N 62°06' E 007°12'0 0.0
2017-Aug-21 13:00N 62°06' E 007°12'0 0.0
2017-Aug-21 12:28N 62°06' E 007°12'0 0.0
2017-Aug-21 12:00N 62°06' E 007°12'0 0.0
2017-Aug-21 11:30N 62°06' E 007°12'0 0.0
2017-Aug-21 11:00N 62°06' E 007°12'0 0.0
2017-Aug-21 10:29N 62°06' E 007°12'0 0.0
2017-Aug-21 09:59N 62°06' E 007°12'0 0.0
2017-Aug-21 09:30N 62°06' E 007°12'0 0.0
2017-Aug-21 09:00N 62°06' E 007°12'0 0.0
2017-Aug-21 08:30N 62°06' E 007°12'1 2.0
2017-Aug-21 08:00N 62°07' E 007°10'510.7
2017-Aug-21 07:30N 62°06' E 006°59'3 1.7
2017-Aug-21 05:36N 62°05' E 006°53'1 2.3
2017-Aug-21 05:12N 62°06' E 006°54'2 8.9
2017-Aug-21 05:00N 62°07' E 006°56'713.8
2017-Aug-21 04:30N 62°14' E 007°01'714.7
2017-Aug-21 04:00N 62°21' E 006°56'713.8
2017-Aug-21 03:30N 62°27' E 006°50'815.9
2017-Aug-21 02:59N 62°26' E 006°32'817.1
2017-Aug-21 02:30N 62°23' E 006°15'815.1
2017-Aug-21 02:00N 62°26' E 006°00'510.9
2017-Aug-21 01:30N 62°28' E 005°49'816.2
2017-Aug-21 01:00N 62°29' E 005°32'917.9
2017-Aug-21 00:30N 62°24' E 005°15'918.3
2017-Aug-21 00:00N 62°18' E 005°00'918.3
2017-Aug-20 23:30N 62°12' E 004°45'918.2
2017-Aug-20 23:00N 62°07' E 004°30'19617.8
2017-Aug-20 11:59N 58°50' E 004°32'1019.2
2017-Aug-20 11:28N 58°43' E 004°45'1019.1
2017-Aug-20 10:58N 58°37' E 004°58'919.6
2017-Aug-20 10:30N 58°30' E 005°10'1019.9
2017-Aug-20 10:00N 58°22' E 005°23'1019.8
2017-Aug-20 09:30N 58°15' E 005°36'1020.1
2017-Aug-20 09:00N 58°09' E 005°50'1020.3
2017-Aug-20 08:30N 58°02' E 006°05'1020.5
2017-Aug-20 08:00N 57°56' E 006°19'1120.7
2017-Aug-20 07:30N 57°49' E 006°34'1021.2
2017-Aug-20 07:00N 57°47' E 006°54'1020.5
2017-Aug-20 06:30N 57°46' E 007°13'1121.2
2017-Aug-20 06:00N 57°46' E 007°33'1020.9
2017-Aug-20 05:30N 57°45' E 007°53'5719.2
2017-Aug-20 02:31N 57°50' E 009°39'219.3
2017-Aug-20 02:25N 57°49' E 009°43'819.4
2017-Aug-20 02:00N 57°49' E 009°58'1019.5
2017-Aug-20 01:30N 57°51' E 010°16'1019.7
2017-Aug-20 01:00N 57°51' E 010°35'918.4
2017-Aug-20 00:30N 57°47' E 010°51'1020.1
2017-Aug-20 00:00N 57°40' E 011°04'1020.0
2017-Aug-19 23:30N 57°33' E 011°17'1020.6
2017-Aug-19 23:00N 57°25' E 011°30'1020.5
2017-Aug-19 22:30N 57°16' E 011°36'1120.8
2017-Aug-19 21:59N 57°05' E 011°41'1220.3
2017-Aug-19 21:23N 56°54' E 011°49'3919.9
2017-Aug-19 19:27N 56°17' E 012°10'920.5
2017-Aug-19 19:00N 56°11' E 012°23'918.9
2017-Aug-19 18:30N 56°05' E 012°36'815.6
2017-Aug-19 18:00N 55°58' E 012°42'815.8
2017-Aug-19 17:31N 55°51' E 012°45'611.9
2017-Aug-19 17:00N 55°45' E 012°41'3 5.7
2017-Aug-19 16:29N 55°43' E 012°38'0 0.0
2017-Aug-19 15:59N 55°43' E 012°38'0 0.0
2017-Aug-19 15:29N 55°43' E 012°38'0 0.0
2017-Aug-19 14:59N 55°43' E 012°38'0 0.0
2017-Aug-19 14:00N 55°43' E 012°38'0 0.0
2017-Aug-19 13:30N 55°43' E 012°38'0 0.0
2017-Aug-19 13:00N 55°43' E 012°38'0 0.0
2017-Aug-19 12:30N 55°43' E 012°38'0 0.0
2017-Aug-19 12:00N 55°43' E 012°38'0 0.0
2017-Aug-19 11:30N 55°43' E 012°38'0 0.0
2017-Aug-19 10:59N 55°43' E 012°38'0 0.0
2017-Aug-19 10:29N 55°43' E 012°38'0 0.0
2017-Aug-19 09:59N 55°43' E 012°38'0 0.0
2017-Aug-19 09:28N 55°43' E 012°38'0 0.0
2017-Aug-19 09:00N 55°43' E 012°38'0 0.0
2017-Aug-19 08:30N 55°43' E 012°38'0 0.0
2017-Aug-19 08:00N 55°43' E 012°38'0 0.0
2017-Aug-19 07:29N 55°43' E 012°38'0 0.0
2017-Aug-19 06:59N 55°43' E 012°38'0 0.0
2017-Aug-19 06:28N 55°43' E 012°38'0 0.0
2017-Aug-19 06:00N 55°43' E 012°38'1 1.5
2017-Aug-19 05:30N 55°43' E 012°39'511.0
2017-Aug-19 05:00N 55°48' E 012°42'816.9
2017-Aug-19 04:30N 55°57' E 012°39'815.1
2017-Aug-19 04:00N 56°04' E 012°37'918.2
2017-Aug-19 03:30N 56°10' E 012°24'917.9
2017-Aug-19 03:00N 56°12' E 012°08'1718.4
2017-Aug-19 02:05N 56°08' E 011°39'818.6
2017-Aug-19 01:39N 56°08' E 011°24'317.9
2017-Aug-19 01:29N 56°08' E 011°19'816.6
2017-Aug-19 00:59N 56°03' E 011°07'1018.8
2017-Aug-19 00:29N 55°55' E 010°57'919.1
2017-Aug-19 00:00N 55°47' E 010°49'1019.6
2017-Aug-18 23:30N 55°38' E 010°48'1019.6
2017-Aug-18 23:00N 55°29' E 010°55'918.3
2017-Aug-18 22:29N 55°20' E 011°02'817.0
2017-Aug-18 22:00N 55°12' E 011°06'817.0
2017-Aug-18 21:30N 55°04' E 011°02'917.2
2017-Aug-18 21:00N 54°56' E 010°56'917.9
2017-Aug-18 20:30N 54°47' E 010°52'816.7
2017-Aug-18 20:00N 54°40' E 010°59'1019.4
2017-Aug-18 19:30N 54°35' E 011°13'1019.3
2017-Aug-18 19:00N 54°31' E 011°28'918.7
2017-Aug-18 18:30N 54°27' E 011°43'917.9
2017-Aug-18 18:00N 54°22' E 011°55'916.8
2017-Aug-18 17:29N 54°15' E 012°04'4 8.8
2017-Aug-18 17:00N 54°11' E 012°06'0 0.0
2017-Aug-18 16:21N 54°11' E 012°06'0 0.0
2017-Aug-18 15:36N 54°11' E 012°06'0 0.0
2017-Aug-18 15:30N 54°11' E 012°06'0 0.0
2017-Aug-18 09:15N 54°11' E 012°06'0 0.0
2017-Aug-18 07:36N 54°11' E 012°06'0 0.2
2017-Aug-18 05:12N 54°10' E 012°06'1 3.4
2017-Aug-18 05:00N 54°10' E 012°06'6 6.5
2017-Aug-18 04:04N 54°15' E 012°02'1 7.7
2017-Aug-18 04:00N 54°15' E 012°01'714.1
2017-Aug-18 03:30N 54°19' E 011°51'918.0
2017-Aug-18 03:00N 54°25' E 011°39'918.3
2017-Aug-18 02:30N 54°29' E 011°26'918.1
2017-Aug-18 02:00N 54°34' E 011°12'917.7
2017-Aug-18 01:30N 54°39' E 010°59'815.6
2017-Aug-18 01:00N 54°45' E 010°52'815.9
2017-Aug-18 00:30N 54°53' E 010°52'816.2
2017-Aug-18 00:00N 54°59' E 011°01'816.6
2017-Aug-17 23:30N 55°08' E 011°02'714.5
2017-Aug-17 23:00N 55°15' E 011°05'612.0
2017-Aug-17 22:30N 55°20' E 011°02'611.5
2017-Aug-17 21:59N 55°26' E 010°58'612.7
2017-Aug-17 21:29N 55°31' E 010°51'611.8
2017-Aug-17 21:00N 55°36' E 010°48'611.4
2017-Aug-17 20:30N 55°42' E 010°47'611.3
2017-Aug-17 19:59N 55°48' E 010°48'611.2
2017-Aug-17 19:29N 55°53' E 010°53'511.6
2017-Aug-17 19:00N 55°57' E 010°60'510.4
2017-Aug-17 18:30N 56°02' E 010°59'713.6
2017-Aug-17 17:59N 56°03' E 010°47'813.3
2017-Aug-17 17:23N 56°05' E 010°33'1012.2
2017-Aug-17 16:35N 56°09' E 010°17'1 8.3
2017-Aug-17 16:29N 56°09' E 010°16'2 2.7
2017-Aug-17 15:56N 56°09' E 010°13'0 0.0
2017-Aug-17 13:23N 56°09' E 010°13'0 0.0
2017-Aug-17 12:59N 56°09' E 010°13'0 0.0
2017-Aug-17 12:29N 56°09' E 010°13'0 0.0
2017-Aug-17 11:59N 56°09' E 010°13'0 0.0
2017-Aug-17 11:23N 56°09' E 010°13'0 0.0
2017-Aug-17 10:56N 56°09' E 010°13'0 0.0
2017-Aug-17 10:26N 56°09' E 010°13'0 0.0
2017-Aug-17 09:56N 56°09' E 010°13'0 0.0
2017-Aug-17 06:47N 56°09' E 010°13'0 0.0
2017-Aug-17 06:27N 56°09' E 010°13'1 1.1
2017-Aug-17 05:50N 56°10' E 010°14'1 4.6
2017-Aug-17 05:30N 56°09' E 010°17'612.1
2017-Aug-17 05:00N 56°07' E 010°26'917.5
2017-Aug-17 04:30N 56°03' E 010°41'918.0
2017-Aug-17 04:00N 56°05' E 010°57'918.3
2017-Aug-17 03:30N 56°13' E 010°60'1018.4
2017-Aug-17 02:59N 56°23' E 011°05'917.5
2017-Aug-17 02:29N 56°29' E 011°15'918.9
2017-Aug-17 01:59N 56°35' E 011°29'1020.4
2017-Aug-17 01:30N 56°41' E 011°43'1018.7
2017-Aug-17 01:00N 56°49' E 011°51'1021.2
2017-Aug-17 00:31N 56°59' E 011°44'1020.8
2017-Aug-17 00:00N 57°09' E 011°36'1020.7
2017-Aug-16 23:31N 57°18' E 011°29'1020.4
2017-Aug-16 23:00N 57°28' E 011°22'1120.9
2017-Aug-16 22:30N 57°34' E 011°07'1021.0
2017-Aug-16 22:01N 57°42' E 010°55'1120.8
2017-Aug-16 21:30N 57°48' E 010°38'1121.5
2017-Aug-16 21:00N 57°49' E 010°19'1121.4
2017-Aug-16 20:30N 57°49' E 009°59'1121.7
2017-Aug-16 19:59N 57°51' E 009°37'1122.1
2017-Aug-16 19:29N 57°52' E 009°16'1122.1
2017-Aug-16 18:59N 57°53' E 008°56'1321.2
2017-Aug-16 18:20N 57°57' E 008°31'720.8
2017-Aug-16 18:00N 57°60' E 008°20'917.7
2017-Aug-16 17:30N 58°04' E 008°05'5 9.7
2017-Aug-16 17:00N 58°08' E 007°59'0 0.3
2017-Aug-16 16:30N 58°08' E 007°60'0 0.0
2017-Aug-16 16:00N 58°08' E 007°60'0 0.0
2017-Aug-16 15:30N 58°08' E 007°60'0 0.0
2017-Aug-16 15:00N 58°08' E 007°60'0 0.0
2017-Aug-16 14:30N 58°08' E 007°60'0 0.0
2017-Aug-16 14:00N 58°08' E 007°60'0 0.0
2017-Aug-16 13:30N 58°08' E 007°60'0 0.0
2017-Aug-16 13:00N 58°08' E 007°60'0 0.0
2017-Aug-16 12:30N 58°08' E 007°60'0 0.0
2017-Aug-16 11:59N 58°08' E 007°60'0 0.0
2017-Aug-16 11:29N 58°08' E 007°60'0 0.0
2017-Aug-16 10:59N 58°08' E 007°60'0 0.2
2017-Aug-16 10:29N 58°08' E 007°59'3 5.4
2017-Aug-16 10:00N 58°06' E 008°03'611.4
2017-Aug-16 09:30N 58°01' E 008°08'815.5
2017-Aug-16 09:00N 57°54' E 008°12'2213.8
2017-Aug-16 07:23N 57°42' E 007°37'717.7
2017-Aug-16 07:00N 57°42' E 007°24'918.1
2017-Aug-16 06:30N 57°42' E 007°07'917.9
2017-Aug-16 06:00N 57°43' E 006°51'918.0
2017-Aug-16 05:30N 57°44' E 006°34'918.7
2017-Aug-16 05:00N 57°49' E 006°20'1118.7
2017-Aug-16 04:26N 57°55' E 006°03'818.9
2017-Aug-16 04:00N 58°00' E 005°51'1319.3
2017-Aug-16 03:20N 58°09' E 005°34'819.1
2017-Aug-16 02:55N 58°14' E 005°22'818.3
2017-Aug-16 02:29N 58°20' E 005°13'918.4
2017-Aug-16 02:00N 58°28' E 005°06'918.0
2017-Aug-16 01:30N 58°36' E 004°58'918.3
2017-Aug-16 01:00N 58°45' E 004°51'918.5
2017-Aug-16 00:30N 58°53' E 004°44'918.3
2017-Aug-16 00:00N 59°02' E 004°36'917.9
2017-Aug-15 23:29N 59°10' E 004°29'5818.3
2017-Aug-15 20:19N 60°08' E 004°30'618.4
2017-Aug-15 20:00N 60°14' E 004°31'917.9
2017-Aug-15 19:30N 60°23' E 004°32'917.8
2017-Aug-15 19:00N 60°32' E 004°33'917.4
2017-Aug-15 18:30N 60°40' E 004°32'713.8
2017-Aug-15 18:00N 60°44' E 004°45'714.8
2017-Aug-15 17:30N 60°38' E 004°53'1019.4
2017-Aug-15 17:00N 60°28' E 005°00'714.5
2017-Aug-15 16:30N 60°23' E 005°10'5 9.1
2017-Aug-15 16:00N 60°24' E 005°19'0 0.1
2017-Aug-15 15:28N 60°24' E 005°19'0 0.0
2017-Aug-15 14:58N 60°24' E 005°19'0 0.0
2017-Aug-15 14:22N 60°24' E 005°19'0 0.0
2017-Aug-15 13:58N 60°24' E 005°19'0 0.0
2017-Aug-15 13:28N 60°24' E 005°19'0 0.0
2017-Aug-15 12:58N 60°24' E 005°19'0 0.0
2017-Aug-15 12:28N 60°24' E 005°19'0 0.0
2017-Aug-15 11:58N 60°24' E 005°19'0 0.0
2017-Aug-15 11:28N 60°24' E 005°19'0 0.0
2017-Aug-15 10:58N 60°24' E 005°19'0 0.0
2017-Aug-15 10:28N 60°24' E 005°19'0 0.0
2017-Aug-15 09:58N 60°24' E 005°19'0 0.0
2017-Aug-15 09:28N 60°24' E 005°19'0 0.0
2017-Aug-15 08:58N 60°24' E 005°19'0 0.0
2017-Aug-15 08:28N 60°24' E 005°19'0 0.0
2017-Aug-15 07:58N 60°24' E 005°19'0 0.0
2017-Aug-15 07:22N 60°24' E 005°19'0 0.0
2017-Aug-15 06:58N 60°24' E 005°19'0 0.0
2017-Aug-15 06:28N 60°24' E 005°19'0 0.0
2017-Aug-15 05:58N 60°24' E 005°19'0 0.2
2017-Aug-15 05:30N 60°24' E 005°19'3 6.6
2017-Aug-15 05:00N 60°24' E 005°12'611.1
2017-Aug-15 04:30N 60°26' E 005°02'916.9
2017-Aug-15 04:00N 60°34' E 004°55'816.8
2017-Aug-15 03:30N 60°41' E 004°48'816.7
2017-Aug-15 03:00N 60°46' E 004°34'918.1
2017-Aug-15 02:30N 60°53' E 004°24'918.0
2017-Aug-15 02:00N 61°02' E 004°17'4118.9
2017-Aug-14 23:49N 61°43' E 004°23'619.3
2017-Aug-14 23:30N 61°48' E 004°28'918.4
2017-Aug-14 22:59N 61°57' E 004°37'1019.4
2017-Aug-14 22:30N 62°05' E 004°46'1019.5
2017-Aug-14 22:00N 62°14' E 004°55'918.1
2017-Aug-14 21:29N 62°21' E 005°09'1019.6
2017-Aug-14 21:00N 62°27' E 005°25'918.1
2017-Aug-14 20:30N 62°30' E 005°43'918.5
2017-Aug-14 20:00N 62°26' E 006°01'713.7
2017-Aug-14 19:30N 62°23' E 006°14'1019.4
2017-Aug-14 19:00N 62°26' E 006°34'918.0
2017-Aug-14 18:30N 62°26' E 006°54'917.4
2017-Aug-14 18:00N 62°18' E 007°01'917.0
2017-Aug-14 17:30N 62°09' E 006°59'4 8.7
2017-Aug-14 17:00N 62°06' E 007°05'3 6.5
2017-Aug-14 16:30N 62°06' E 007°12'0 0.0
2017-Aug-14 16:00N 62°06' E 007°12'0 0.0
2017-Aug-14 15:30N 62°06' E 007°12'0 0.0
2017-Aug-14 13:07N 62°06' E 007°12'0 0.0
2017-Aug-14 13:00N 62°06' E 007°12'0 0.0
2017-Aug-14 12:30N 62°06' E 007°12'0 0.0
2017-Aug-14 12:00N 62°06' E 007°12'0 0.0
2017-Aug-14 11:28N 62°06' E 007°12'0 0.0
2017-Aug-14 10:58N 62°06' E 007°12'0 0.0
2017-Aug-14 10:30N 62°06' E 007°12'0 0.0
2017-Aug-14 09:58N 62°06' E 007°12'0 0.0
2017-Aug-14 09:28N 62°06' E 007°12'0 0.0
2017-Aug-14 08:58N 62°06' E 007°12'0 0.1
2017-Aug-14 08:30N 62°06' E 007°12'2 3.0
2017-Aug-14 08:00N 62°07' E 007°09'611.0
2017-Aug-14 07:30N 62°06' E 006°58'3 1.5
2017-Aug-14 05:41N 62°05' E 006°53'1 1.5
2017-Aug-14 05:18N 62°06' E 006°53'2 7.4
2017-Aug-14 05:00N 62°07' E 006°57'713.2
2017-Aug-14 04:30N 62°13' E 007°01'612.4
2017-Aug-14 04:00N 62°19' E 006°57'713.2
2017-Aug-14 03:30N 62°26' E 006°54'713.2
2017-Aug-14 03:00N 62°27' E 006°40'713.5
2017-Aug-14 02:30N 62°25' E 006°27'713.9
2017-Aug-14 02:00N 62°23' E 006°13'713.3
2017-Aug-14 01:30N 62°26' E 005°60'612.7
2017-Aug-14 00:59N 62°29' E 005°47'816.1
2017-Aug-14 00:30N 62°29' E 005°30'918.5
2017-Aug-14 00:00N 62°23' E 005°15'918.5
2017-Aug-13 23:30N 62°17' E 004°59'918.4
2017-Aug-13 23:00N 62°11' E 004°43'  

Dump ship's entire track history